Time;durP1;ratioP1;P1;durP2;ratioP2;P2;SDS_P1;SDS_P2;PMS_P1;PMS_P2;Temp;Humidity;BMP_temperature;BMP_pressure;BME280_temperature;BME280_humidity;BME280_pressure;Samples;Min_cycle;Max_cycle;Signal;HPM_P1;HPM_P2
2023/04/02 00:02:20;;;;;;;7.73;5.03;;;7.30;99.90;;;;;;4971837;28;20202;-79
2023/04/02 00:05:15;;;;;;;8.60;5.23;;;7.30;99.90;;;;;;4940121;29;20223;-79
2023/04/02 00:07:47;;;;;;;7.40;4.53;;;7.30;99.90;;;;;;4939702;29;20198;-82
2023/04/02 00:10:32;;;;;;;7.97;4.43;;;7.30;99.90;;;;;;4939685;29;20205;-80
2023/04/02 00:13:03;;;;;;;7.23;4.70;;;7.30;99.90;;;;;;4939485;29;20205;-80
2023/04/02 00:15:30;;;;;;;8.10;4.90;;;7.20;99.90;;;;;;4957173;29;20213;-81
2023/04/02 00:17:58;;;;;;;7.20;4.60;;;7.20;99.90;;;;;;4940547;29;20320;-76
2023/04/02 00:20:27;;;;;;;6.63;4.30;;;7.20;99.90;;;;;;4958208;29;20233;-74
2023/04/02 00:22:55;;;;;;;6.60;4.20;;;7.20;99.90;;;;;;4940297;29;20210;-79
2023/04/02 00:25:26;;;;;;;7.43;4.10;;;7.10;99.90;;;;;;4941468;29;20205;-73
2023/04/02 00:28:02;;;;;;;6.00;4.23;;;7.20;99.90;;;;;;4940402;29;20198;-75
2023/04/02 00:30:29;;;;;;;6.47;4.27;;;7.30;99.90;;;;;;4939540;29;20194;-73
2023/04/02 00:32:57;;;;;;;6.90;4.80;;;7.30;99.90;;;;;;4939199;29;20313;-73
2023/04/02 00:35:27;;;;;;;6.93;4.47;;;7.30;99.90;;;;;;4939130;29;20265;-74
2023/04/02 00:37:56;;;;;;;6.03;4.30;;;7.30;99.90;;;;;;4938921;29;20230;-75
2023/04/02 00:40:29;;;;;;;7.67;4.70;;;7.30;99.90;;;;;;4939376;29;20209;-75
2023/04/02 00:42:58;;;;;;;6.77;4.57;;;7.30;99.90;;;;;;4956130;29;20218;-73
2023/04/02 00:45:31;;;;;;;8.17;4.63;;;7.20;99.90;;;;;;4955975;29;20244;-73
2023/04/02 00:48:15;;;;;;;8.93;4.83;;;7.20;99.90;;;;;;4938769;29;20619;-74
2023/04/02 00:50:47;;;;;;;6.93;5.00;;;7.20;99.90;;;;;;4938846;29;20198;-72
2023/04/02 00:53:26;;;;;;;7.07;4.97;;;7.10;99.90;;;;;;4938784;29;20627;-73
2023/04/02 00:55:54;;;;;;;8.37;4.93;;;7.10;99.90;;;;;;4937610;29;20186;-72
2023/04/02 00:58:49;;;;;;;8.40;5.10;;;7.20;99.90;;;;;;4938584;29;20205;-75
2023/04/02 01:01:21;;;;;;;8.60;5.10;;;7.20;99.90;;;;;;4955950;29;20687;-73
2023/04/02 01:04:02;;;;;;;7.87;5.27;;;7.20;99.90;;;;;;4938661;29;20233;-80
2023/04/02 01:06:37;;;;;;;8.40;5.10;;;7.20;99.90;;;;;;4954482;29;20269;-77
2023/04/02 01:09:25;;;;;;;7.67;4.97;;;7.10;99.90;;;;;;4938482;29;20212;-80
2023/04/02 01:12:01;;;;;;;8.80;5.20;;;7.10;99.90;;;;;;4938194;29;20196;-74
2023/04/02 01:14:28;;;;;;;8.37;5.50;;;7.10;99.90;;;;;;4938661;29;20573;-81
2023/04/02 01:17:27;;;;;;;8.53;5.47;;;7.10;99.90;;;;;;4938393;29;20652;-88
2023/04/02 01:20:16;;;;;;;7.93;4.67;;;7.10;99.90;;;;;;4956225;29;20202;-78
2023/04/02 01:23:13;;;;;;;8.27;4.93;;;7.20;99.90;;;;;;4938613;29;20210;-73
2023/04/02 01:25:49;;;;;;;7.73;4.83;;;7.20;99.90;;;;;;4946831;29;20190;-81
2023/04/02 01:28:36;;;;;;;7.40;4.77;;;7.10;99.90;;;;;;4958374;29;20664;-72
2023/04/02 01:31:03;;;;;;;7.57;4.70;;;7.10;99.90;;;;;;4942411;29;20209;-72
2023/04/02 01:33:34;;;;;;;8.73;5.20;;;7.10;99.90;;;;;;4938946;29;20206;-83
2023/04/02 01:36:13;;;;;;;8.63;5.03;;;7.10;99.90;;;;;;4939423;29;20209;-85
2023/04/02 01:38:51;;;;;;;8.33;4.93;;;7.10;99.90;;;;;;4938883;29;20292;-87
2023/04/02 01:41:38;;;;;;;7.40;5.03;;;7.20;99.90;;;;;;4938244;29;20664;-91
2023/04/02 01:44:15;;;;;;;7.80;5.03;;;7.10;99.90;;;;;;4956088;29;20214;-72
2023/04/02 01:46:46;;;;;;;8.67;5.43;;;7.10;99.90;;;;;;4945557;29;20211;-79
2023/04/02 01:49:19;;;;;;;8.87;5.27;;;7.20;99.90;;;;;;4947058;29;20644;-77
2023/04/02 01:51:51;;;;;;;10.67;5.77;;;7.20;99.90;;;;;;4955147;29;20205;-91
2023/04/02 01:54:20;;;;;;;7.80;5.30;;;7.20;99.90;;;;;;4955535;29;20206;-91
2023/04/02 01:56:48;;;;;;;7.50;5.20;;;7.10;99.90;;;;;;4955275;29;20211;-85
2023/04/02 01:59:19;;;;;;;7.43;4.93;;;7.20;99.90;;;;;;4954499;29;20205;-89
2023/04/02 02:01:58;;;;;;;10.03;5.80;;;7.20;99.90;;;;;;4955493;29;20198;-85
2023/04/02 02:04:25;;;;;;;9.63;5.73;;;7.10;99.90;;;;;;4954984;29;20234;-83
2023/04/02 02:06:52;;;;;;;7.70;5.23;;;7.10;99.90;;;;;;4945125;29;20207;-83
2023/04/02 02:09:24;;;;;;;9.20;5.70;;;7.20;99.90;;;;;;4965005;29;20196;-85
2023/04/02 02:11:51;;;;;;;9.17;5.37;;;7.10;99.90;;;;;;4970421;29;20200;-75
2023/04/02 02:14:21;;;;;;;8.53;5.47;;;7.10;99.90;;;;;;4967213;29;20202;-76
2023/04/02 02:16:49;;;;;;;10.87;5.87;;;7.20;99.90;;;;;;4967249;29;20207;-74
2023/04/02 02:19:37;;;;;;;10.03;5.90;;;7.10;99.90;;;;;;4966827;29;20269;-72
2023/04/02 02:22:12;;;;;;;8.83;5.67;;;7.10;99.90;;;;;;4942843;29;20201;-80
2023/04/02 02:24:41;;;;;;;9.90;5.83;;;7.10;99.90;;;;;;4938169;29;20221;-79
2023/04/02 02:27:22;;;;;;;9.80;6.43;;;6.90;99.90;;;;;;4953964;29;20656;-82
2023/04/02 02:29:52;;;;;;;10.37;6.03;;;6.90;99.90;;;;;;4938852;29;20193;-78
2023/04/02 02:32:22;;;;;;;9.87;6.17;;;6.80;99.90;;;;;;4938376;29;20209;-75
2023/04/02 02:35:12;;;;;;;11.30;6.73;;;6.70;99.90;;;;;;4939476;29;20702;-76
2023/04/02 02:37:45;;;;;;;10.70;6.00;;;6.70;99.90;;;;;;4944796;28;20296;-75
2023/04/02 02:40:19;;;;;;;8.53;5.80;;;6.60;99.90;;;;;;4943680;29;20296;-82
2023/04/02 02:42:58;;;;;;;7.57;5.07;;;6.70;99.90;;;;;;4956545;29;20195;-85
2023/04/02 02:45:30;;;;;;;7.67;4.13;;;6.70;99.90;;;;;;4957797;29;20207;-84
2023/04/02 02:47:58;;;;;;;6.00;4.17;;;6.60;99.90;;;;;;4955511;29;20200;-78
2023/04/02 02:50:30;;;;;;;6.70;4.37;;;6.60;99.90;;;;;;4957642;29;20196;-79
2023/04/02 02:52:59;;;;;;;5.83;4.03;;;6.40;99.90;;;;;;4939685;29;20208;-76
2023/04/02 02:55:33;;;;;;;7.27;4.30;;;6.40;99.90;;;;;;4958626;29;20198;-81
2023/04/02 02:58:26;;;;;;;6.80;4.37;;;6.30;99.90;;;;;;4959591;29;20255;-75
2023/04/02 03:00:54;;;;;;;7.57;4.60;;;6.30;99.90;;;;;;4939908;29;20209;-78
2023/04/02 03:03:27;;;;;;;6.50;4.27;;;6.40;99.90;;;;;;4944283;29;20231;-75
2023/04/02 03:06:00;;;;;;;7.07;4.57;;;6.40;99.90;;;;;;4939033;29;20671;-87
2023/04/02 03:08:42;;;;;;;7.50;4.63;;;6.30;99.90;;;;;;4953323;29;20197;-74
2023/04/02 03:11:37;;;;;;;6.20;4.40;;;6.30;99.90;;;;;;4937286;29;20206;-76
2023/04/02 03:14:27;;;;;;;7.07;4.70;;;6.30;99.90;;;;;;4936927;29;20206;-82
2023/04/02 03:17:04;;;;;;;6.73;4.53;;;6.30;99.90;;;;;;4937346;29;20640;-74
2023/04/02 03:19:39;;;;;;;6.67;4.30;;;6.30;99.90;;;;;;4954576;28;20193;-80
2023/04/02 03:22:28;;;;;;;6.37;4.40;;;6.30;99.90;;;;;;4940634;29;20270;-80
2023/04/02 03:25:02;;;;;;;6.63;4.10;;;6.30;99.90;;;;;;4940680;29;20233;-86
2023/04/02 03:27:34;;;;;;;7.23;4.43;;;6.30;99.90;;;;;;4940476;29;20208;-85
2023/04/02 03:30:19;;;;;;;7.37;4.50;;;6.40;99.90;;;;;;4940505;29;20212;-78
2023/04/02 03:32:50;;;;;;;5.67;4.17;;;6.40;99.90;;;;;;4957492;29;20205;-72
2023/04/02 03:35:32;;;;;;;6.60;4.20;;;6.50;99.90;;;;;;4957373;29;20197;-74
2023/04/02 03:38:05;;;;;;;6.83;5.23;;;6.50;99.90;;;;;;4940006;29;20236;-72
2023/04/02 03:40:38;;;;;;;7.43;4.30;;;6.40;99.90;;;;;;4940059;29;20222;-71
2023/04/02 03:43:22;;;;;;;7.10;4.57;;;6.40;99.90;;;;;;4957104;29;20286;-77
2023/04/02 03:46:15;;;;;;;6.13;4.33;;;6.40;99.90;;;;;;4957073;29;20215;-75
2023/04/02 03:48:50;;;;;;;7.17;4.37;;;6.30;99.90;;;;;;4940164;29;20219;-71
2023/04/02 03:51:23;;;;;;;6.60;4.70;;;6.30;99.90;;;;;;4940134;29;20197;-73
2023/04/02 03:53:50;;;;;;;6.73;4.83;;;6.40;99.90;;;;;;4956126;29;20293;-81
2023/04/02 03:56:38;;;;;;;6.17;4.10;;;6.40;99.90;;;;;;4956137;29;20189;-75
2023/04/02 03:59:17;;;;;;;7.50;4.63;;;6.40;99.90;;;;;;4958205;29;20201;-81
2023/04/02 04:01:59;;;;;;;7.33;4.73;;;6.40;99.90;;;;;;4943448;29;20228;-76
2023/04/02 04:04:30;;;;;;;6.30;4.37;;;6.30;99.90;;;;;;4962133;29;20229;-73
2023/04/02 04:06:59;;;;;;;7.80;4.53;;;6.30;99.90;;;;;;4941100;29;20289;-86
2023/04/02 04:09:30;;;;;;;8.83;5.27;;;6.30;99.90;;;;;;4958322;29;20299;-89
2023/04/02 04:12:25;;;;;;;7.43;4.97;;;6.30;99.90;;;;;;4943129;29;20559;-82
2023/04/02 04:15:03;;;;;;;7.83;5.30;;;6.30;99.90;;;;;;4962365;29;20263;-81
2023/04/02 04:17:50;;;;;;;7.60;5.13;;;6.20;99.90;;;;;;4941702;29;20218;-88
2023/04/02 04:20:23;;;;;;;8.00;5.00;;;6.20;99.90;;;;;;4964625;29;20584;-87
2023/04/02 04:22:54;;;;;;;7.83;5.10;;;6.10;99.90;;;;;;4949269;29;20229;-84
2023/04/02 04:25:28;;;;;;;8.93;5.30;;;6.10;99.90;;;;;;4942991;29;20337;-81
2023/04/02 04:28:24;;;;;;;8.03;5.17;;;6.10;99.90;;;;;;4942052;29;20205;-85
2023/04/02 04:31:16;;;;;;;8.37;5.20;;;6.10;99.90;;;;;;4940391;29;20201;-81
2023/04/02 04:33:49;;;;;;;8.80;5.50;;;6.20;99.90;;;;;;4939040;29;20642;-72
2023/04/02 04:36:26;;;;;;;8.33;5.33;;;6.20;99.90;;;;;;4955918;29;20227;-82
2023/04/02 04:38:58;;;;;;;9.80;5.60;;;6.30;99.90;;;;;;4938755;29;20248;-81
2023/04/02 04:41:32;;;;;;;10.10;5.73;;;6.30;99.90;;;;;;4956398;29;20199;-77
2023/04/02 04:44:20;;;;;;;10.33;6.63;;;6.30;99.90;;;;;;4938917;29;20216;-78
2023/04/02 04:46:54;;;;;;;9.83;6.07;;;6.20;99.90;;;;;;4955847;29;20208;-82
2023/04/02 04:49:34;;;;;;;10.50;6.53;;;6.10;99.90;;;;;;4939139;29;20212;-71
2023/04/02 04:52:20;;;;;;;12.33;7.07;;;6.10;99.90;;;;;;4956538;29;20200;-87
2023/04/02 04:54:47;;;;;;;12.30;7.10;;;6.00;99.90;;;;;;4938802;29;20210;-82
2023/04/02 04:57:26;;;;;;;14.10;8.03;;;6.00;99.90;;;;;;4938918;29;20562;-81
2023/04/02 05:00:19;;;;;;;16.67;8.60;;;6.10;99.90;;;;;;4938635;29;20643;-75
2023/04/02 05:02:56;;;;;;;17.57;9.70;;;6.00;99.90;;;;;;4955931;29;20196;-76
2023/04/02 05:05:30;;;;;;;18.47;10.10;;;6.10;99.90;;;;;;4938585;29;20276;-74
2023/04/02 05:08:14;;;;;;;16.90;9.73;;;6.10;99.90;;;;;;4938523;29;20208;-76
2023/04/02 05:11:02;;;;;;;19.67;10.57;;;6.10;99.90;;;;;;4938715;29;20201;-74
2023/04/02 05:13:37;;;;;;;19.53;10.13;;;6.10;99.90;;;;;;4938684;29;20209;-88
2023/04/02 05:16:32;;;;;;;19.60;10.27;;;6.10;99.90;;;;;;4939581;29;20241;-72
2023/04/02 05:19:06;;;;;;;18.17;10.23;;;6.00;99.90;;;;;;4944313;29;20227;-80
2023/04/02 05:22:11;;;;;;;16.30;9.57;;;6.00;99.90;;;;;;4939407;29;20592;-78
2023/04/02 05:24:43;;;;;;;21.70;11.10;;;6.00;99.90;;;;;;4940593;29;20231;-73
2023/04/02 05:27:28;;;;;;;19.40;10.27;;;5.90;99.90;;;;;;4940469;29;20223;-78
2023/04/02 05:30:13;;;;;;;19.03;10.63;;;5.90;99.90;;;;;;4922909;29;20199;-72
2023/04/02 05:32:46;;;;;;;21.67;11.47;;;5.90;99.90;;;;;;4938325;29;20201;-73
2023/04/02 05:35:19;;;;;;;20.37;10.03;;;5.90;99.90;;;;;;4937880;29;20703;-74
2023/04/02 05:37:47;;;;;;;20.47;10.40;;;5.70;99.90;;;;;;4955496;29;20208;-74
2023/04/02 05:40:22;;;;;;;19.03;9.87;;;5.60;99.90;;;;;;4938299;29;20197;-73
2023/04/02 05:42:52;;;;;;;18.43;9.60;;;5.60;99.90;;;;;;4954930;28;20285;-77
2023/04/02 05:45:28;;;;;;;18.70;10.27;;;5.60;99.90;;;;;;4955510;29;20725;-77
2023/04/02 05:48:00;;;;;;;18.00;9.67;;;5.60;99.90;;;;;;4938933;29;20203;-87
2023/04/02 05:50:39;;;;;;;19.93;10.77;;;5.60;99.90;;;;;;4939142;29;20244;-83
2023/04/02 05:53:13;;;;;;;23.23;12.07;;;5.60;99.90;;;;;;4956083;29;20214;-84
2023/04/02 05:55:50;;;;;;;23.70;11.70;;;5.60;99.90;;;;;;4939565;29;20222;-81
2023/04/02 05:58:33;;;;;;;24.20;12.17;;;5.60;99.90;;;;;;4938231;29;20215;-83
2023/04/02 06:01:16;;;;;;;24.70;12.30;;;5.50;99.90;;;;;;4943004;29;20227;-85
2023/04/02 06:03:55;;;;;;;23.97;12.13;;;5.50;99.90;;;;;;4938258;29;20207;-77
2023/04/02 06:06:43;;;;;;;24.13;12.30;;;5.50;99.90;;;;;;4938098;29;20204;-73
2023/04/02 06:09:19;;;;;;;23.57;11.83;;;5.50;99.90;;;;;;4940209;29;20215;-71
2023/04/02 06:11:52;;;;;;;22.33;11.80;;;5.50;99.90;;;;;;4955132;29;20674;-72
2023/04/02 06:14:20;;;;;;;23.57;11.20;;;5.40;99.90;;;;;;4937567;29;20211;-74
2023/04/02 06:16:47;;;;;;;20.77;10.60;;;5.50;99.90;;;;;;4937336;29;20200;-74
2023/04/02 06:19:26;;;;;;;19.07;10.07;;;5.60;99.90;;;;;;4937253;29;20272;-73
2023/04/02 06:21:58;;;;;;;19.47;9.53;;;5.60;99.90;;;;;;4954703;29;20194;-71
2023/04/02 06:24:28;;;;;;;17.50;9.50;;;5.60;99.90;;;;;;4954300;29;20221;-74
2023/04/02 06:27:04;;;;;;;18.73;9.17;;;5.70;99.90;;;;;;4954435;29;20206;-74
2023/04/02 06:29:38;;;;;;;17.13;8.93;;;5.70;99.90;;;;;;4937165;29;20200;-77
2023/04/02 06:32:07;;;;;;;16.40;9.13;;;5.70;99.90;;;;;;4940394;29;20186;-77
2023/04/02 06:34:38;;;;;;;17.50;9.20;;;5.60;99.90;;;;;;4918259;29;20257;-75
2023/04/02 06:37:18;;;;;;;18.07;9.80;;;5.40;99.90;;;;;;4918528;29;20209;-77
2023/04/02 06:39:45;;;;;;;15.37;9.33;;;5.30;99.90;;;;;;4918224;29;20296;-77
2023/04/02 06:42:20;;;;;;;15.03;8.57;;;5.30;99.90;;;;;;4918124;29;20213;-74
2023/04/02 06:44:48;;;;;;;12.33;7.77;;;5.30;99.90;;;;;;4934202;29;20874;-75
2023/04/02 06:47:38;;;;;;;14.07;7.83;;;5.20;99.90;;;;;;4932041;29;20643;-79
2023/04/02 06:50:12;;;;;;;16.38;9.88;;;5.20;99.90;;;;;;4935975;29;20437;-78
2023/04/02 06:53:13;;;;;;;14.93;8.83;;;5.20;99.90;;;;;;4937595;28;20286;-80
2023/04/02 06:55:47;;;;;;;13.57;7.83;;;5.20;99.90;;;;;;4941155;29;20211;-76
2023/04/02 06:58:17;;;;;;;13.47;7.10;;;5.10;99.90;;;;;;4931278;29;20212;-76
2023/04/02 07:00:48;;;;;;;12.57;7.37;;;5.10;99.90;;;;;;4922120;29;20234;-77
2023/04/02 07:03:23;;;;;;;12.00;6.67;;;5.10;99.90;;;;;;4940675;29;20196;-77
2023/04/02 07:05:50;;;;;;;11.77;6.80;;;5.00;99.90;;;;;;4940603;29;20229;-77
2023/04/02 07:08:17;;;;;;;12.37;6.37;;;4.90;99.90;;;;;;4940656;29;20232;-76
2023/04/02 07:10:45;;;;;;;12.53;6.90;;;5.00;99.90;;;;;;4957877;29;20213;-77
2023/04/02 07:13:15;;;;;;;11.03;6.23;;;5.00;99.90;;;;;;4940853;29;20200;-78
2023/04/02 07:15:45;;;;;;;9.90;6.00;;;5.00;99.90;;;;;;4957767;29;20208;-78
2023/04/02 07:18:32;;;;;;;9.87;6.37;;;4.90;99.90;;;;;;4940220;29;20223;-77
2023/04/02 07:21:00;;;;;;;9.90;6.10;;;4.90;99.90;;;;;;4958056;29;20200;-78
2023/04/02 07:23:27;;;;;;;11.97;6.73;;;4.90;99.90;;;;;;4940519;29;20295;-78
2023/04/02 07:25:55;;;;;;;11.10;6.17;;;4.90;99.90;;;;;;4940200;29;20257;-76
2023/04/02 07:28:22;;;;;;;10.40;5.90;;;5.10;99.90;;;;;;4940337;29;20204;-76
2023/04/02 07:30:50;;;;;;;10.87;6.40;;;5.10;99.90;;;;;;4940523;29;20214;-76
2023/04/02 07:33:20;;;;;;;10.63;5.93;;;5.20;99.90;;;;;;4940368;29;20202;-76
2023/04/02 07:35:49;;;;;;;10.43;5.87;;;5.30;99.90;;;;;;4957596;29;20582;-75
2023/04/02 07:38:16;;;;;;;10.53;6.30;;;5.20;99.90;;;;;;4957375;28;20236;-75
2023/04/02 07:40:44;;;;;;;10.63;6.90;;;5.10;99.90;;;;;;4940242;29;20202;-77
2023/04/02 07:43:11;;;;;;;9.33;6.10;;;5.30;99.90;;;;;;4957488;29;20276;-76
2023/04/02 07:45:38;;;;;;;10.77;6.63;;;5.20;99.90;;;;;;4940199;29;20286;-75
2023/04/02 07:48:07;;;;;;;10.40;6.57;;;5.30;99.90;;;;;;4957111;29;20221;-75
2023/04/02 07:50:35;;;;;;;10.47;6.57;;;5.30;99.90;;;;;;4957554;29;20524;-76
2023/04/02 07:53:02;;;;;;;11.50;7.17;;;5.40;99.90;;;;;;4939933;29;20200;-75
2023/04/02 07:55:29;;;;;;;10.27;6.70;;;5.50;99.90;;;;;;4940098;29;20213;-76
2023/04/02 07:57:58;;;;;;;11.67;6.73;;;5.50;99.90;;;;;;4956797;29;20199;-75
2023/04/02 08:00:27;;;;;;;11.40;6.60;;;5.60;99.90;;;;;;4957467;29;20233;-75
2023/04/02 08:02:55;;;;;;;10.47;6.80;;;5.60;99.90;;;;;;4939699;29;20201;-76
2023/04/02 08:05:23;;;;;;;10.17;6.47;;;5.60;99.90;;;;;;4939164;29;20220;-77
2023/04/02 08:07:56;;;;;;;11.13;6.57;;;5.60;99.90;;;;;;4939577;29;20201;-75
2023/04/02 08:10:23;;;;;;;9.53;6.27;;;5.60;99.90;;;;;;4956754;29;20207;-75
2023/04/02 08:12:50;;;;;;;9.83;6.20;;;5.70;99.90;;;;;;4939777;29;20276;-75
2023/04/02 08:15:17;;;;;;;10.33;6.63;;;5.80;99.90;;;;;;4956811;29;20220;-77
2023/04/02 08:17:48;;;;;;;11.20;6.83;;;5.70;99.90;;;;;;4939053;29;20749;-77
2023/04/02 08:20:20;;;;;;;11.33;7.00;;;5.80;99.90;;;;;;4956534;29;20212;-76
2023/04/02 08:22:48;;;;;;;10.13;6.50;;;5.80;99.90;;;;;;4938872;29;20208;-76
2023/04/02 08:25:16;;;;;;;10.90;6.60;;;5.60;99.90;;;;;;4956422;29;20271;-76
2023/04/02 08:27:46;;;;;;;9.30;6.37;;;5.60;99.90;;;;;;4939381;29;20215;-76
2023/04/02 08:30:15;;;;;;;10.93;6.73;;;5.60;99.90;;;;;;4939190;29;20211;-78
2023/04/02 08:32:42;;;;;;;10.73;6.90;;;5.60;99.90;;;;;;4956314;28;20200;-74
2023/04/02 08:35:12;;;;;;;10.80;6.73;;;5.60;99.90;;;;;;4939232;29;20209;-78
2023/04/02 08:37:39;;;;;;;9.53;5.83;;;5.60;99.90;;;;;;4938772;28;20202;-79
2023/04/02 08:40:15;;;;;;;7.13;5.37;;;5.60;99.90;;;;;;4956706;29;20256;-77
2023/04/02 08:42:54;;;;;;;9.27;5.93;;;5.60;99.90;;;;;;4939245;29;20654;-79
2023/04/02 08:45:27;;;;;;;9.23;5.77;;;5.60;99.90;;;;;;4938782;29;20274;-78
2023/04/02 08:47:56;;;;;;;8.80;5.57;;;5.60;99.90;;;;;;4938690;29;20298;-75
2023/04/02 08:50:35;;;;;;;9.63;5.63;;;5.70;99.90;;;;;;4956173;29;20196;-77
2023/04/02 08:53:24;;;;;;;8.73;5.37;;;5.60;99.90;;;;;;4938711;29;20211;-74
2023/04/02 08:56:02;;;;;;;9.03;5.80;;;5.60;99.90;;;;;;4938797;29;20197;-77
2023/04/02 08:58:42;;;;;;;7.87;5.27;;;5.60;99.90;;;;;;4955872;29;20649;-77
2023/04/02 09:01:33;;;;;;;8.87;5.70;;;5.70;99.90;;;;;;4938546;29;20242;-78
2023/04/02 09:04:04;;;;;;;9.40;5.47;;;5.80;99.90;;;;;;4938630;29;20205;-76
2023/04/02 09:06:33;;;;;;;11.40;6.60;;;5.80;99.90;;;;;;4938816;29;20221;-75
2023/04/02 09:09:00;;;;;;;10.23;5.80;;;5.80;99.90;;;;;;4938836;29;20269;-76
2023/04/02 09:11:40;;;;;;;9.80;5.83;;;5.80;99.90;;;;;;4956127;29;20208;-77
2023/04/02 09:14:17;;;;;;;8.87;5.67;;;5.70;99.90;;;;;;4938851;29;20185;-77
2023/04/02 09:16:57;;;;;;;9.13;5.90;;;5.60;99.90;;;;;;4937529;29;20544;-77
2023/04/02 09:19:32;;;;;;;7.80;5.50;;;5.50;99.90;;;;;;4938339;29;20569;-77
2023/04/02 09:22:22;;;;;;;8.37;5.20;;;5.60;99.90;;;;;;4938213;29;20557;-78
2023/04/02 09:24:57;;;;;;;9.53;5.30;;;5.70;99.90;;;;;;4938415;29;20219;-78
2023/04/02 09:27:31;;;;;;;9.57;6.00;;;5.50;99.90;;;;;;4955367;29;20283;-78
2023/04/02 09:30:23;;;;;;;7.97;5.70;;;5.60;99.90;;;;;;4955518;29;20195;-76
2023/04/02 09:32:55;;;;;;;8.37;5.20;;;5.60;99.90;;;;;;4955183;29;20204;-77
2023/04/02 09:35:25;;;;;;;9.03;5.53;;;5.70;99.90;;;;;;4955289;29;20284;-77
2023/04/02 09:38:26;;;;;;;11.63;6.63;;;5.70;99.90;;;;;;4937546;28;20237;-78
2023/04/02 09:40:53;;;;;;;6.87;4.23;;;5.70;99.90;;;;;;4955277;29;20219;-77
2023/04/02 09:43:27;;;;;;;7.57;4.30;;;5.60;99.90;;;;;;4954835;29;20214;-77
2023/04/02 09:46:05;;;;;;;8.07;4.70;;;5.60;99.90;;;;;;4937780;29;20225;-78
2023/04/02 09:48:51;;;;;;;6.20;4.23;;;5.60;99.90;;;;;;4937731;29;20194;-78
2023/04/02 09:51:24;;;;;;;5.60;4.00;;;5.90;99.90;;;;;;4922210;29;20714;-77
2023/04/02 09:54:03;;;;;;;7.03;4.30;;;5.90;99.90;;;;;;4938164;29;20530;-78
2023/04/02 09:56:31;;;;;;;6.90;4.40;;;5.70;99.90;;;;;;4937796;29;20228;-79
2023/04/02 09:59:01;;;;;;;8.90;3.80;;;5.80;99.90;;;;;;4937991;29;20202;-77
2023/04/02 10:02:03;;;;;;;5.80;3.90;;;5.80;99.90;;;;;;4937655;29;20295;-76
2023/04/02 10:04:36;;;;;;;5.53;3.37;;;5.90;99.90;;;;;;4861485;29;20206;-78
2023/04/02 10:07:05;;;;;;;6.07;3.70;;;5.90;99.90;;;;;;4846283;29;20754;-78
2023/04/02 10:09:35;;;;;;;7.30;4.30;;;5.80;99.90;;;;;;4876874;29;20233;-79
2023/04/02 10:12:06;;;;;;;5.23;3.70;;;5.80;99.90;;;;;;4861378;29;20608;-77
2023/04/02 10:14:43;;;;;;;6.10;3.60;;;5.80;99.90;;;;;;4861360;29;20306;-80
2023/04/02 10:17:18;;;;;;;5.13;3.80;;;5.70;99.90;;;;;;4861354;29;20592;-77
2023/04/02 10:19:57;;;;;;;4.90;3.33;;;5.60;99.90;;;;;;4876745;29;20203;-78
2023/04/02 10:22:27;;;;;;;5.93;3.80;;;5.60;99.90;;;;;;4861268;29;20204;-79
2023/04/02 10:24:54;;;;;;;5.73;3.47;;;5.80;99.90;;;;;;4876381;29;20215;-77
2023/04/02 10:27:32;;;;;;;4.40;3.10;;;5.90;99.90;;;;;;4876289;29;20224;-76
2023/04/02 10:30:22;;;;;;;4.67;2.93;;;5.90;99.90;;;;;;4861222;29;20204;-78
2023/04/02 10:32:59;;;;;;;4.60;3.13;;;5.70;99.90;;;;;;4861336;29;20659;-76
2023/04/02 10:35:48;;;;;;;4.33;2.87;;;5.60;99.90;;;;;;4861237;29;20204;-77
2023/04/02 10:38:33;;;;;;;4.77;3.20;;;5.60;99.90;;;;;;4860804;29;20251;-76
2023/04/02 10:41:05;;;;;;;5.23;3.23;;;5.60;99.90;;;;;;4911232;29;20202;-77
2023/04/02 10:43:38;;;;;;;5.37;3.40;;;5.60;99.90;;;;;;4937532;29;20200;-77
2023/04/02 10:46:30;;;;;;;4.93;3.27;;;5.60;99.90;;;;;;4937259;29;20208;-77
2023/04/02 10:49:39;;;;;;;4.97;3.13;;;5.70;99.90;;;;;;4942199;23;20307;-75
2023/04/02 10:52:06;;;;;;;7.63;3.50;;;5.60;99.90;;;;;;4954600;29;20300;-76
2023/04/02 10:54:40;;;;;;;5.80;3.70;;;5.50;99.90;;;;;;4936769;29;20213;-75
2023/04/02 10:57:32;;;;;;;6.67;3.70;;;5.50;99.90;;;;;;4937065;29;20197;-76
2023/04/02 11:00:15;;;;;;;6.93;3.50;;;5.40;99.90;;;;;;4921385;29;20570;-77
2023/04/02 11:02:45;;;;;;;4.93;3.60;;;5.50;99.90;;;;;;4921105;29;20255;-77
2023/04/02 11:05:24;;;;;;;6.03;3.50;;;5.30;99.90;;;;;;4936689;29;20225;-74
2023/04/02 11:08:15;;;;;;;5.77;3.50;;;5.30;99.90;;;;;;4954230;29;20304;-75
2023/04/02 11:10:52;;;;;;;5.60;3.80;;;5.20;99.90;;;;;;4921329;29;20206;-79
2023/04/02 11:13:30;;;;;;;6.07;3.47;;;5.30;99.90;;;;;;4937092;29;20296;-77
2023/04/02 11:15:57;;;;;;;6.07;3.67;;;5.20;99.90;;;;;;4936822;29;20217;-79
2023/04/02 11:18:34;;;;;;;6.67;4.30;;;5.20;99.90;;;;;;4936589;29;20224;-79
2023/04/02 11:21:41;;;;;;;6.67;4.23;;;5.20;99.90;;;;;;4936796;29;20430;-77
2023/04/02 11:24:44;;;;;;;8.00;5.27;;;5.20;99.90;;;;;;4936846;29;20197;-75
2023/04/02 11:27:15;;;;;;;8.40;5.23;;;5.20;99.90;;;;;;4936569;29;20853;-75
2023/04/02 11:29:56;;;;;;;8.83;5.50;;;5.20;99.90;;;;;;4936917;29;20199;-75
2023/04/02 11:32:27;;;;;;;8.93;5.40;;;5.20;99.90;;;;;;4936552;29;20209;-79
2023/04/02 11:34:54;;;;;;;8.70;5.70;;;5.10;99.90;;;;;;4921135;29;20203;-77
2023/04/02 11:37:44;;;;;;;9.80;6.07;;;5.10;99.90;;;;;;4936790;29;20200;-76
2023/04/02 11:40:12;;;;;;;9.60;6.10;;;5.10;99.90;;;;;;4937900;29;20217;-76
2023/04/02 11:42:43;;;;;;;9.50;6.10;;;5.00;99.90;;;;;;4940246;29;20291;-76
2023/04/02 11:45:20;;;;;;;11.00;6.30;;;5.00;99.90;;;;;;4992366;23;20249;-77
2023/04/02 11:48:16;;;;;;;12.23;6.90;;;5.00;99.90;;;;;;4957242;29;20194;-77
2023/04/02 11:50:45;;;;;;;11.30;6.63;;;4.90;99.90;;;;;;4932652;29;20263;-76
2023/04/02 11:53:13;;;;;;;10.30;6.53;;;5.00;99.90;;;;;;4957139;29;20233;-79
2023/04/02 11:55:45;;;;;;;11.30;6.90;;;5.10;99.90;;;;;;4957023;29;20209;-76
2023/04/02 11:58:50;;;;;;;10.17;6.53;;;5.00;99.90;;;;;;4955668;29;20235;-81
2023/04/02 12:01:43;;;;;;;10.33;6.50;;;5.10;99.90;;;;;;4878964;29;20206;-77
2023/04/02 12:04:40;;;;;;;10.47;6.60;;;5.10;99.90;;;;;;4878880;29;20208;-76
2023/04/02 12:07:16;;;;;;;10.70;6.63;;;5.20;99.90;;;;;;4848120;29;20235;-78
2023/04/02 12:09:59;;;;;;;10.83;6.10;;;5.30;99.90;;;;;;4879417;29;20237;-77
2023/04/02 12:12:32;;;;;;;9.73;5.93;;;5.30;99.90;;;;;;4879423;29;20232;-77
2023/04/02 12:15:00;;;;;;;8.83;6.00;;;5.30;99.90;;;;;;4879884;29;20226;-80
2023/04/02 12:17:33;;;;;;;9.80;5.67;;;5.30;99.90;;;;;;4876735;29;20601;-80
2023/04/02 12:20:21;;;;;;;10.10;5.80;;;5.30;99.90;;;;;;4844014;29;20209;-80
2023/04/02 12:22:54;;;;;;;9.07;5.83;;;5.30;99.90;;;;;;4842608;29;20217;-83
2023/04/02 12:25:39;;;;;;;8.70;5.80;;;5.30;99.90;;;;;;4866243;29;20638;-77
2023/04/02 12:28:18;;;;;;;9.13;5.70;;;5.40;99.90;;;;;;4859626;29;20284;-77
2023/04/02 12:30:47;;;;;;;9.40;5.87;;;5.40;99.90;;;;;;4860149;29;20195;-79
2023/04/02 12:33:19;;;;;;;8.60;5.57;;;5.30;99.90;;;;;;4845220;29;20255;-77
2023/04/02 12:35:49;;;;;;;8.30;5.50;;;5.30;99.90;;;;;;4844631;29;20245;-81
2023/04/02 12:38:21;;;;;;;9.27;5.43;;;5.20;99.90;;;;;;4891880;29;20720;-80
2023/04/02 12:40:59;;;;;;;10.33;5.97;;;5.10;99.90;;;;;;4901461;29;20206;-77
2023/04/02 12:43:31;;;;;;;8.53;5.77;;;5.10;99.90;;;;;;4918339;29;20199;-80
2023/04/02 12:46:01;;;;;;;9.10;5.90;;;5.20;99.90;;;;;;4901085;29;20224;-80
2023/04/02 12:48:32;;;;;;;11.20;6.00;;;5.10;99.90;;;;;;4901449;29;20201;-85
2023/04/02 12:51:00;;;;;;;9.57;6.07;;;5.00;99.90;;;;;;4911130;29;20198;-76
2023/04/02 12:53:40;;;;;;;9.57;5.97;;;4.80;99.90;;;;;;4919233;29;20210;-76
2023/04/02 12:56:18;;;;;;;11.83;6.40;;;4.80;99.90;;;;;;4937010;29;20198;-77
2023/04/02 12:58:58;;;;;;;9.00;5.77;;;4.80;99.90;;;;;;4936786;29;20187;-74
2023/04/02 13:01:28;;;;;;;9.90;5.70;;;4.90;99.90;;;;;;4904285;29;20539;-75
2023/04/02 13:04:07;;;;;;;9.70;5.77;;;4.90;99.90;;;;;;4919966;29;20230;-76
2023/04/02 13:06:35;;;;;;;8.63;5.37;;;4.90;99.90;;;;;;4936701;29;20211;-76
2023/04/02 13:09:23;;;;;;;8.30;5.27;;;4.90;99.90;;;;;;4900766;29;20200;-75
2023/04/02 13:11:51;;;;;;;9.20;5.47;;;4.90;99.90;;;;;;4900747;29;20201;-76
2023/04/02 13:14:20;;;;;;;8.33;5.50;;;5.00;99.90;;;;;;4917381;29;20192;-77
2023/04/02 13:20:28;;;;;;;8.40;5.20;;;5.30;99.90;;;;;;4856280;29;20699;-76
2023/04/02 13:22:56;;;;;;;8.73;5.20;;;5.30;99.90;;;;;;4789024;29;20246;-76
2023/04/02 13:25:34;;;;;;;8.43;5.40;;;5.40;99.90;;;;;;4788420;29;20220;-78
2023/04/02 13:28:01;;;;;;;7.37;5.03;;;5.40;99.90;;;;;;4804085;29;20218;-77
2023/04/02 13:30:28;;;;;;;7.87;4.80;;;5.30;99.90;;;;;;4804190;29;20286;-75
2023/04/02 13:32:55;;;;;;;8.70;4.57;;;5.30;99.90;;;;;;4803965;29;20299;-76
2023/04/02 13:35:22;;;;;;;7.57;4.43;;;5.20;99.90;;;;;;4787842;29;20677;-78
2023/04/02 13:37:50;;;;;;;6.40;4.50;;;5.10;99.90;;;;;;4801932;29;20221;-79
2023/04/02 13:40:18;;;;;;;6.90;4.70;;;5.00;99.90;;;;;;4803559;29;20212;-77
2023/04/02 13:42:47;;;;;;;6.70;4.13;;;5.10;99.90;;;;;;4788183;29;20265;-78